createdAt,value
2022-11-09T00:00:39.316Z,11.25
2022-11-09T00:03:07.983Z,11.27
2022-11-09T00:05:34.961Z,11.32
2022-11-09T00:08:01.922Z,11.34
2022-11-09T00:10:28.782Z,11.40
2022-11-09T00:12:55.531Z,11.42
2022-11-09T00:15:22.311Z,11.36
2022-11-09T00:17:49.062Z,11.40
2022-11-09T00:20:17.439Z,11.33
2022-11-09T00:22:49.910Z,11.25
2022-11-09T00:25:16.980Z,11.28
2022-11-09T00:27:43.700Z,11.34
2022-11-09T00:30:11.759Z,11.34
2022-11-09T00:32:39.044Z,11.34
2022-11-09T00:35:07.393Z,11.32
2022-11-09T00:37:36.536Z,11.32
2022-11-09T00:40:03.779Z,11.30
2022-11-09T00:42:30.601Z,11.25
2022-11-09T00:44:57.354Z,11.26
2022-11-09T00:47:24.205Z,11.23
2022-11-09T00:49:53.239Z,11.22
2022-11-09T00:52:20.164Z,11.12
2022-11-09T00:54:48.323Z,11.05
2022-11-09T00:57:15.780Z,11.09
2022-11-09T00:59:44.971Z,11.04
2022-11-09T01:02:11.793Z,11.05
2022-11-09T01:04:38.762Z,11.03
2022-11-09T01:07:07.239Z,11.02
2022-11-09T01:09:34.458Z,10.97
2022-11-09T01:12:02.917Z,10.99
2022-11-09T01:14:29.662Z,10.96
2022-11-09T01:16:56.453Z,10.98
2022-11-09T01:19:25.952Z,10.93
2022-11-09T01:21:53.007Z,10.92
2022-11-09T01:24:20.745Z,10.94
2022-11-09T01:26:48.277Z,10.91
2022-11-09T01:29:16.471Z,10.92
2022-11-09T01:31:43.185Z,10.84
2022-11-09T01:34:09.961Z,10.89
2022-11-09T01:36:36.662Z,10.90
2022-11-09T01:39:03.533Z,10.93
2022-11-09T01:41:30.345Z,10.99
2022-11-09T01:44:10.306Z,11.00
2022-11-09T01:46:48.301Z,11.01
2022-11-09T01:49:21.819Z,11.08
2022-11-09T01:51:53.280Z,11.09
2022-11-09T01:54:23.535Z,11.05
2022-11-09T01:56:54.841Z,11.07
2022-11-09T01:59:26.657Z,11.07
2022-11-09T02:01:55.456Z,11.15
2022-11-09T02:04:27.430Z,11.24
2022-11-09T02:06:56.982Z,11.25
2022-11-09T02:09:25.538Z,11.24
2022-11-09T02:11:52.408Z,11.15
2022-11-09T02:14:21.056Z,11.21
2022-11-09T02:16:49.096Z,11.24
2022-11-09T02:19:17.407Z,11.23
2022-11-09T02:21:45.685Z,11.28
2022-11-09T02:24:13.071Z,11.34
2022-11-09T02:26:44.215Z,11.34
2022-11-09T02:29:14.752Z,11.34
2022-11-09T02:31:46.590Z,11.31
2022-11-09T02:34:17.429Z,11.37
2022-11-09T02:36:45.665Z,11.37
2022-11-09T02:39:19.709Z,11.31
2022-11-09T02:41:50.908Z,11.33
2022-11-09T02:44:19.403Z,11.30
2022-11-09T02:46:46.397Z,11.33
2022-11-09T02:49:14.463Z,11.35
2022-11-09T02:51:41.407Z,11.37
2022-11-09T02:54:09.574Z,11.42
2022-11-09T02:56:36.968Z,11.49
2022-11-09T02:59:04.146Z,11.37
2022-11-09T03:01:32.508Z,11.27
2022-11-09T03:03:59.349Z,11.20
2022-11-09T03:06:34.928Z,11.19
2022-11-09T03:09:07.867Z,11.10
2022-11-09T03:11:36.671Z,11.09
2022-11-09T03:14:05.729Z,11.04
2022-11-09T03:16:32.990Z,11.05
2022-11-09T03:19:00.133Z,11.05
2022-11-09T03:21:29.355Z,11.07
2022-11-09T03:23:56.525Z,11.10
2022-11-09T03:26:24.105Z,11.06
2022-11-09T03:28:53.431Z,11.09
2022-11-09T03:31:20.252Z,11.10
2022-11-09T03:33:49.770Z,11.09
2022-11-09T03:36:16.628Z,11.10
2022-11-09T03:38:43.473Z,11.13
2022-11-09T03:41:11.277Z,11.07
2022-11-09T03:43:38.097Z,11.05
2022-11-09T03:46:06.498Z,11.08
2022-11-09T03:48:33.754Z,11.13
2022-11-09T03:51:00.561Z,11.09
2022-11-09T03:53:27.309Z,11.04
2022-11-09T03:55:54.051Z,11.04
2022-11-09T03:58:20.893Z,10.99
2022-11-09T04:00:47.637Z,10.94
2022-11-09T04:03:15.822Z,10.92
2022-11-09T04:05:42.603Z,10.98
2022-11-09T04:08:09.373Z,10.97
2022-11-09T04:10:36.131Z,10.97
2022-11-09T04:13:02.869Z,10.95
2022-11-09T04:15:29.736Z,10.93
2022-11-09T04:17:57.879Z,10.88
2022-11-09T04:20:27.149Z,10.94
2022-11-09T04:22:54.706Z,10.96
2022-11-09T04:25:22.649Z,10.91
2022-11-09T04:27:49.478Z,10.94
2022-11-09T04:30:16.572Z,10.98
2022-11-09T04:32:43.333Z,10.93
2022-11-09T04:35:10.090Z,10.90
2022-11-09T04:37:38.287Z,10.95
2022-11-09T04:40:06.282Z,10.97
2022-11-09T04:42:33.034Z,10.98
2022-11-09T04:44:59.794Z,11.03
2022-11-09T04:47:27.560Z,11.00
2022-11-09T04:49:54.373Z,11.01
2022-11-09T04:52:21.103Z,10.96
2022-11-09T04:54:49.212Z,10.88
2022-11-09T04:57:15.965Z,10.86
2022-11-09T04:59:42.707Z,10.81
2022-11-09T05:02:09.509Z,10.77
2022-11-09T05:04:36.319Z,10.76
2022-11-09T05:07:03.216Z,10.79
2022-11-09T05:09:30.317Z,10.69
2022-11-09T05:11:58.463Z,10.71
2022-11-09T05:14:25.192Z,10.68
2022-11-09T05:16:51.921Z,10.71
2022-11-09T05:19:18.655Z,10.69
2022-11-09T05:21:45.402Z,10.67
2022-11-09T05:24:12.408Z,10.74
2022-11-09T05:26:40.642Z,10.73
2022-11-09T05:29:10.458Z,10.82
2022-11-09T05:31:38.141Z,10.79
2022-11-09T05:34:06.171Z,10.72
2022-11-09T05:36:33.765Z,10.77
2022-11-09T05:39:00.876Z,10.71
2022-11-09T05:41:28.030Z,10.66
2022-11-09T05:43:54.948Z,10.57
2022-11-09T05:46:23.174Z,10.53
2022-11-09T05:48:50.086Z,10.49
2022-11-09T05:51:16.822Z,10.43
2022-11-09T05:53:46.544Z,10.38
2022-11-09T05:56:14.722Z,10.28
2022-11-09T05:58:42.220Z,10.26
2022-11-09T06:01:12.280Z,10.23
2022-11-09T06:03:42.170Z,10.28
2022-11-09T06:06:11.057Z,10.28
2022-11-09T06:08:38.226Z,10.25
2022-11-09T06:11:06.936Z,10.21
2022-11-09T06:13:34.315Z,10.20
2022-11-09T06:16:03.410Z,10.15
2022-11-09T06:18:31.958Z,10.13
2022-11-09T06:21:03.357Z,10.15
2022-11-09T06:23:30.790Z,10.16
2022-11-09T06:25:58.820Z,10.16
2022-11-09T06:28:26.331Z,10.18
2022-11-09T06:30:53.715Z,10.15
2022-11-09T06:33:20.930Z,10.18
2022-11-09T06:35:50.898Z,10.18
2022-11-09T06:38:23.639Z,10.21
2022-11-09T06:40:51.882Z,10.24
2022-11-09T06:43:19.004Z,10.23
2022-11-09T06:45:46.043Z,10.25
2022-11-09T06:48:13.210Z,10.35
2022-11-09T06:50:42.766Z,10.31
2022-11-09T06:53:10.570Z,10.31
2022-11-09T06:55:38.866Z,10.32
2022-11-09T06:58:06.839Z,10.33
2022-11-09T07:00:33.677Z,10.39
2022-11-09T07:03:00.480Z,10.44
2022-11-09T07:05:27.605Z,10.46
2022-11-09T07:07:54.326Z,10.42
2022-11-09T07:10:21.157Z,10.53
2022-11-09T07:12:49.431Z,10.57
2022-11-09T07:15:17.637Z,10.59
2022-11-09T07:17:44.546Z,10.66
2022-11-09T07:20:13.777Z,10.64
2022-11-09T07:22:41.884Z,10.64
2022-11-09T07:25:11.306Z,10.63
2022-11-09T07:27:38.139Z,10.68
2022-11-09T07:30:08.314Z,10.67
2022-11-09T07:33:06.971Z,10.67
2022-11-09T07:35:22.176Z,10.74
2022-11-09T07:37:48.952Z,10.81
2022-11-09T07:40:15.958Z,10.91
2022-11-09T07:42:43.070Z,10.96
2022-11-09T07:45:12.057Z,10.96
2022-11-09T07:47:38.820Z,10.90
2022-11-09T07:50:06.574Z,11.02
2022-11-09T07:52:33.448Z,11.06
2022-11-09T07:55:00.298Z,11.08
2022-11-09T07:57:27.021Z,11.14
2022-11-09T07:59:53.975Z,11.20
2022-11-09T08:02:22.300Z,11.17
2022-11-09T08:04:49.432Z,11.19
2022-11-09T08:07:16.218Z,11.20
2022-11-09T08:09:43.350Z,11.23
2022-11-09T08:12:10.404Z,11.25
2022-11-09T08:14:37.124Z,11.28
2022-11-09T08:17:03.914Z,11.27
2022-11-09T08:19:32.073Z,11.32
2022-11-09T08:22:00.337Z,11.31
2022-11-09T08:24:27.226Z,11.33
2022-11-09T08:26:55.990Z,11.37
2022-11-09T08:29:23.126Z,11.41
2022-11-09T08:31:50.212Z,11.46
2022-11-09T08:34:17.710Z,11.45
2022-11-09T08:36:45.873Z,11.49
2022-11-09T08:39:12.723Z,11.53
2022-11-09T08:41:39.471Z,11.55
2022-11-09T08:44:06.286Z,11.63
2022-11-09T08:46:37.040Z,11.67
2022-11-09T08:49:06.771Z,11.70
2022-11-09T08:51:33.574Z,11.76
2022-11-09T08:54:02.093Z,11.85
2022-11-09T08:56:28.947Z,11.90
2022-11-09T08:58:55.819Z,11.98
2022-11-09T09:01:23.014Z,12.02
2022-11-09T09:03:49.878Z,12.06
2022-11-09T09:06:16.769Z,12.20
2022-11-09T09:08:43.559Z,12.32
2022-11-09T09:11:11.878Z,12.41
2022-11-09T09:13:43.097Z,12.36
2022-11-09T09:16:12.650Z,12.33
2022-11-09T09:18:39.491Z,12.48
2022-11-09T09:21:07.603Z,12.78
2022-11-09T09:23:34.465Z,13.30
2022-11-09T09:26:01.362Z,13.86
2022-11-09T09:28:29.631Z,13.87
2022-11-09T09:30:58.692Z,13.42
2022-11-09T09:33:26.173Z,13.19
2022-11-09T09:35:55.511Z,13.71
2022-11-09T09:38:22.618Z,13.97
2022-11-09T09:40:57.479Z,14.43
2022-11-09T09:43:31.157Z,14.40
2022-11-09T09:45:59.863Z,13.84
2022-11-09T09:48:35.231Z,13.24
2022-11-09T09:51:09.322Z,13.02
2022-11-09T09:53:40.968Z,12.97
2022-11-09T09:56:13.974Z,12.93
2022-11-09T09:58:47.600Z,13.15
2022-11-09T10:01:17.690Z,13.32
2022-11-09T10:03:44.435Z,13.90
2022-11-09T10:06:40.391Z,13.97
2022-11-09T10:09:20.293Z,13.86
2022-11-09T10:12:00.785Z,13.61
2022-11-09T10:15:06.651Z,13.24
2022-11-09T10:17:41.094Z,13.48
2022-11-09T10:20:23.420Z,14.21
2022-11-09T10:23:11.837Z,14.11
2022-11-09T10:28:42.630Z,13.46
2022-11-09T10:31:19.379Z,13.16
2022-11-09T10:33:54.293Z,12.93
2022-11-09T10:36:27.554Z,12.77
2022-11-09T10:38:59.007Z,12.66
2022-11-09T10:41:48.817Z,12.49
2022-11-09T10:44:34.225Z,12.32
2022-11-09T10:47:19.659Z,12.10
2022-11-09T10:50:17.752Z,11.86
2022-11-09T10:53:10.150Z,11.62
2022-11-09T10:55:56.887Z,11.49
2022-11-09T10:58:48.027Z,11.31
2022-11-09T11:01:37.125Z,11.06
2022-11-09T11:04:25.328Z,10.77
2022-11-09T11:07:21.242Z,10.62
2022-11-09T11:10:11.620Z,10.50
2022-11-09T11:13:23.381Z,10.38
2022-11-09T11:16:22.072Z,10.31
2022-11-09T11:19:32.359Z,10.26
2022-11-09T11:22:23.658Z,10.20
2022-11-09T11:25:19.105Z,10.16
2022-11-09T11:28:16.525Z,10.10
2022-11-09T11:31:02.566Z,10.06
2022-11-09T11:33:48.332Z,10.10
2022-11-09T11:36:43.849Z,10.13
2022-11-09T11:39:44.217Z,10.19
2022-11-09T11:42:59.048Z,10.24
2022-11-09T11:45:53.308Z,10.24
2022-11-09T11:49:00.493Z,10.24
2022-11-09T11:51:55.629Z,10.25
2022-11-09T11:54:57.220Z,10.38
2022-11-09T11:57:52.282Z,10.48
2022-11-09T12:00:47.367Z,10.59
2022-11-09T12:03:50.835Z,10.71
2022-11-09T12:06:47.261Z,10.80
2022-11-09T12:09:43.960Z,10.86
2022-11-09T12:12:40.367Z,10.95
2022-11-09T12:15:36.138Z,11.05
2022-11-09T12:18:38.161Z,11.19
2022-11-09T12:21:32.221Z,11.34
2022-11-09T12:24:27.597Z,11.30
2022-11-09T12:27:32.697Z,11.24
2022-11-09T12:30:22.622Z,11.17
2022-11-09T12:33:16.789Z,11.16
2022-11-09T12:36:12.722Z,11.21
2022-11-09T12:39:03.632Z,11.29
2022-11-09T12:41:50.424Z,11.30
2022-11-09T12:44:42.313Z,11.31
2022-11-09T12:47:34.584Z,11.33
2022-11-09T12:50:23.530Z,11.34
2022-11-09T12:53:09.690Z,11.40
2022-11-09T12:56:00.190Z,11.64
2022-11-09T12:58:45.516Z,11.93
2022-11-09T13:01:51.921Z,11.88
2022-11-09T13:04:38.687Z,11.68
2022-11-09T13:07:43.732Z,11.46
2022-11-09T13:10:31.993Z,11.33
2022-11-09T13:13:24.365Z,11.18
2022-11-09T13:16:12.493Z,11.01
2022-11-09T13:18:58.337Z,10.81
2022-11-09T13:21:44.943Z,10.68
2022-11-09T13:24:52.613Z,10.61
2022-11-09T13:27:44.068Z,10.59
2022-11-09T13:30:50.498Z,10.66
2022-11-09T13:33:36.404Z,10.69
2022-11-09T13:36:22.077Z,10.71
2022-11-09T13:39:29.686Z,10.74
2022-11-09T13:42:26.950Z,10.74
2022-11-09T13:45:28.214Z,10.69
2022-11-09T13:48:38.734Z,10.74
2022-11-09T13:51:37.838Z,10.83
2022-11-09T13:54:31.903Z,10.91
2022-11-09T13:57:17.752Z,10.94
2022-11-09T14:00:05.569Z,10.92
2022-11-09T14:02:57.196Z,10.87
2022-11-09T14:05:44.204Z,10.77
2022-11-09T14:08:37.475Z,10.76
2022-11-09T14:11:57.304Z,10.73
2022-11-09T14:15:04.682Z,10.80
2022-11-09T14:18:02.728Z,10.89
2022-11-09T14:20:55.213Z,11.00
2022-11-09T14:23:40.562Z,11.29
2022-11-09T14:26:26.294Z,11.57
2022-11-09T14:29:21.180Z,11.78
2022-11-09T14:32:23.044Z,11.68
2022-11-09T14:35:19.874Z,11.62
2022-11-09T14:38:17.474Z,11.54
2022-11-09T14:41:03.938Z,11.44
2022-11-09T14:43:50.726Z,11.26
2022-11-09T14:46:37.650Z,11.17
2022-11-09T14:49:25.474Z,11.16
2022-11-09T14:52:16.433Z,11.19
2022-11-09T14:55:03.345Z,11.14
2022-11-09T14:57:51.381Z,11.12
2022-11-09T15:00:36.740Z,11.13
2022-11-09T15:03:26.747Z,11.16
2022-11-09T15:06:14.333Z,11.19
2022-11-09T15:09:03.829Z,11.12
2022-11-09T15:11:50.032Z,11.09
2022-11-09T15:14:35.807Z,11.12
2022-11-09T15:17:26.654Z,11.16
2022-11-09T15:20:29.770Z,11.26
2022-11-09T15:23:35.462Z,11.38
2022-11-09T15:26:40.545Z,11.42
2022-11-09T15:29:28.698Z,11.36
2022-11-09T15:32:17.412Z,11.34
2022-11-09T15:35:16.308Z,11.29
2022-11-09T15:38:03.775Z,11.27
2022-11-09T15:40:48.670Z,11.16
2022-11-09T15:43:34.140Z,11.00
2022-11-09T15:46:22.501Z,10.88
2022-11-09T15:49:16.533Z,10.72
2022-11-09T15:52:03.029Z,10.63
2022-11-09T15:54:49.741Z,10.59
2022-11-09T15:57:35.006Z,10.46
2022-11-09T16:00:22.398Z,10.41
2022-11-09T16:03:08.817Z,10.31
2022-11-09T16:05:54.504Z,10.18
2022-11-09T16:08:39.677Z,10.11
2022-11-09T16:11:26.495Z,10.04
2022-11-09T16:14:12.346Z,10.03
2022-11-09T16:16:57.623Z,10.04
2022-11-09T16:19:43.411Z,10.02
2022-11-09T16:22:30.523Z,10.02
2022-11-09T16:25:16.382Z,10.10
2022-11-09T16:28:03.350Z,10.08
2022-11-09T16:30:49.332Z,10.04
2022-11-09T16:33:35.624Z,10.00
2022-11-09T16:36:24.784Z,10.08
2022-11-09T16:39:16.987Z,10.04
2022-11-09T16:42:07.940Z,10.06
2022-11-09T16:44:58.659Z,9.99
2022-11-09T16:47:47.542Z,9.97
2022-11-09T16:50:33.107Z,9.93
2022-11-09T16:53:22.717Z,10.00
2022-11-09T16:56:11.165Z,10.08
2022-11-09T16:58:56.562Z,10.18
2022-11-09T17:01:43.687Z,10.28
2022-11-09T17:04:29.156Z,10.23
2022-11-09T17:07:14.628Z,10.21
2022-11-09T17:10:00.820Z,10.17
2022-11-09T17:12:46.623Z,10.10
2022-11-09T17:15:31.820Z,10.05
2022-11-09T17:18:19.100Z,10.01
2022-11-09T17:21:09.870Z,10.01
2022-11-09T17:23:56.612Z,10.01
2022-11-09T17:26:41.798Z,10.07
2022-11-09T17:29:27.566Z,10.10
2022-11-09T17:32:12.799Z,10.20
2022-11-09T17:34:59.488Z,10.19
2022-11-09T17:37:44.818Z,10.16
2022-11-09T17:40:30.572Z,10.16
2022-11-09T17:43:16.176Z,10.08
2022-11-09T17:46:06.151Z,10.08
2022-11-09T17:48:51.823Z,10.21
2022-11-09T17:51:38.618Z,10.37
2022-11-09T17:54:24.264Z,10.44
2022-11-09T17:57:09.782Z,10.44
2022-11-09T17:59:55.195Z,10.44
2022-11-09T18:02:40.565Z,10.46
2022-11-09T18:05:25.855Z,10.45
2022-11-09T18:08:14.491Z,10.42
2022-11-09T18:10:59.675Z,10.31
2022-11-09T18:13:45.728Z,10.18
2022-11-09T18:16:33.644Z,9.95
2022-11-09T18:19:19.125Z,9.78
2022-11-09T18:22:08.628Z,9.70
2022-11-09T18:24:58.610Z,9.62
2022-11-09T18:27:44.086Z,9.58
2022-11-09T18:30:29.620Z,9.73
2022-11-09T18:33:14.883Z,9.82
2022-11-09T18:36:02.368Z,9.91
2022-11-09T18:38:51.148Z,10.04
2022-11-09T18:41:37.922Z,9.99
2022-11-09T18:44:23.123Z,10.03
2022-11-09T18:47:09.669Z,10.03
2022-11-09T18:49:55.066Z,10.01
2022-11-09T18:52:40.151Z,9.97
2022-11-09T18:55:25.768Z,9.92
2022-11-09T18:58:13.198Z,9.87
2022-11-09T19:00:59.990Z,9.83
2022-11-09T19:03:45.611Z,9.76
2022-11-09T19:06:30.924Z,9.74
2022-11-09T19:09:34.858Z,9.72
2022-11-09T19:12:20.171Z,9.70
2022-11-09T19:15:08.177Z,9.72
2022-11-09T19:17:53.998Z,9.67
2022-11-09T19:20:39.363Z,9.58
2022-11-09T19:23:26.455Z,9.52
2022-11-09T19:26:15.031Z,9.45
2022-11-09T19:29:00.425Z,9.32
2022-11-09T19:31:48.655Z,9.20
2022-11-09T19:34:33.867Z,9.07
2022-11-09T19:37:19.169Z,9.08
2022-11-09T19:40:08.235Z,9.00
2022-11-09T19:42:53.485Z,8.89
2022-11-09T19:45:42.832Z,8.85
2022-11-09T19:48:29.810Z,8.85
2022-11-09T19:51:16.134Z,8.97
2022-11-09T19:54:02.785Z,8.97
2022-11-09T19:56:48.558Z,9.05
2022-11-09T19:59:33.992Z,9.08
2022-11-09T20:02:19.648Z,9.11
2022-11-09T20:05:09.352Z,9.13
2022-11-09T20:07:56.744Z,9.24
2022-11-09T20:10:42.343Z,9.25
2022-11-09T20:13:27.921Z,9.28
2022-11-09T20:16:13.278Z,9.22
2022-11-09T20:18:59.113Z,9.16
2022-11-09T20:21:45.934Z,9.09
2022-11-09T20:24:31.492Z,9.00
2022-11-09T20:27:17.175Z,8.93
2022-11-09T20:30:05.307Z,8.83
2022-11-09T20:32:50.734Z,8.77
2022-11-09T20:35:36.425Z,8.76
2022-11-09T20:38:23.795Z,8.86
2022-11-09T20:41:11.686Z,8.93
2022-11-09T20:43:56.934Z,9.03
2022-11-09T20:46:42.390Z,9.22
2022-11-09T20:49:28.319Z,9.28
2022-11-09T20:52:13.523Z,9.30
2022-11-09T20:55:00.316Z,9.38
2022-11-09T20:57:45.607Z,9.45
2022-11-09T21:00:31.454Z,9.40
2022-11-09T21:03:17.179Z,9.33
2022-11-09T21:06:05.279Z,9.18
2022-11-09T21:08:52.648Z,9.06
2022-11-09T21:11:59.403Z,9.01
2022-11-09T21:14:44.607Z,8.96
2022-11-09T21:17:30.151Z,8.96
2022-11-09T21:20:15.340Z,8.99
2022-11-09T21:23:12.737Z,8.98
2022-11-09T21:26:18.761Z,8.91
2022-11-09T21:29:24.685Z,8.89
2022-11-09T21:32:11.759Z,8.80
2022-11-09T21:34:57.283Z,8.78
2022-11-09T21:37:42.587Z,8.78
2022-11-09T21:40:28.636Z,8.79
2022-11-09T21:43:15.039Z,8.77
2022-11-09T21:46:02.006Z,8.82
2022-11-09T21:48:47.548Z,8.81
2022-11-09T21:51:33.443Z,8.82
2022-11-09T21:54:19.511Z,8.82
2022-11-09T21:57:04.877Z,8.82
2022-11-09T21:59:50.272Z,8.74
2022-11-09T22:02:37.165Z,8.76
2022-11-09T22:05:23.233Z,8.73
2022-11-09T22:08:08.663Z,8.73
2022-11-09T22:11:03.593Z,8.80
2022-11-09T22:14:07.690Z,8.81
2022-11-09T22:16:53.035Z,8.83
2022-11-09T22:19:58.410Z,8.86
2022-11-09T22:22:45.383Z,8.91
2022-11-09T22:25:30.682Z,8.93
2022-11-09T22:28:16.009Z,8.93
2022-11-09T22:31:01.942Z,8.86
2022-11-09T22:33:47.400Z,8.80
2022-11-09T22:36:35.320Z,8.77
2022-11-09T22:39:20.784Z,8.71
2022-11-09T22:42:06.447Z,8.75
2022-11-09T22:44:51.965Z,8.73
2022-11-09T22:47:37.492Z,8.71
2022-11-09T22:50:23.010Z,8.71
2022-11-09T22:53:10.004Z,8.71
2022-11-09T22:55:56.835Z,8.71
2022-11-09T22:58:43.083Z,8.69
2022-11-09T23:01:28.442Z,8.69
2022-11-09T23:04:13.800Z,8.68
2022-11-09T23:06:59.318Z,8.71
2022-11-09T23:09:46.180Z,8.70
2022-11-09T23:12:32.964Z,8.76
2022-11-09T23:15:18.352Z,8.77
2022-11-09T23:18:22.875Z,8.76
2022-11-09T23:21:08.383Z,8.69
2022-11-09T23:23:55.384Z,8.71
2022-11-09T23:26:42.354Z,8.70
2022-11-09T23:29:28.157Z,8.70
2022-11-09T23:32:13.431Z,8.67
2022-11-09T23:34:58.653Z,8.68
2022-11-09T23:37:44.267Z,8.68
2022-11-09T23:40:32.449Z,8.66
2022-11-09T23:43:19.804Z,8.66
2022-11-09T23:46:10.170Z,8.66
2022-11-09T23:48:55.386Z,8.69
2022-11-09T23:51:40.886Z,8.67
2022-11-09T23:54:26.342Z,8.77
2022-11-09T23:57:12.103Z,8.74
2022-11-09T23:59:58.737Z,8.62
